sensor_id;sensor_type;location;lat;lon;timestamp;pressure;altitude;pressure_sealevel;temperature;humidity
59315;BME280;46521;50.160;20.802;2023-02-01T00:08:17;98995.34;;;0.88;85.22
59315;BME280;46521;50.160;20.802;2023-02-01T00:18:18;98989.20;;;0.89;85.20
59315;BME280;46521;50.160;20.802;2023-02-01T00:28:20;98979.73;;;0.88;85.77
59315;BME280;46521;50.160;20.802;2023-02-01T00:38:22;98982.58;;;0.85;85.92
59315;BME280;46521;50.160;20.802;2023-02-01T00:48:25;98970.74;;;0.81;85.82
59315;BME280;46521;50.160;20.802;2023-02-01T00:58:27;98962.94;;;0.81;86.18
59315;BME280;46521;50.160;20.802;2023-02-01T01:08:29;98952.89;;;0.77;86.06
59315;BME280;46521;50.160;20.802;2023-02-01T01:18:31;98937.27;;;0.77;86.71
59315;BME280;46521;50.160;20.802;2023-02-01T01:28:33;98916.92;;;0.82;85.98
59315;BME280;46521;50.160;20.802;2023-02-01T01:38:35;98909.56;;;0.87;86.04
59315;BME280;46521;50.160;20.802;2023-02-01T01:48:37;98900.88;;;0.98;86.18
59315;BME280;46521;50.160;20.802;2023-02-01T01:58:38;98895.05;;;1.05;85.92
59315;BME280;46521;50.160;20.802;2023-02-01T02:08:40;98919.84;;;1.21;85.68
59315;BME280;46521;50.160;20.802;2023-02-01T02:49:36;98964.69;;;1.24;84.53
59315;BME280;46521;50.160;20.802;2023-02-01T02:59:43;98975.48;;;1.20;83.98
59315;BME280;46521;50.160;20.802;2023-02-01T03:10:08;98979.14;;;1.17;83.47
59315;BME280;46521;50.160;20.802;2023-02-01T03:20:12;99004.50;;;1.15;83.58
59315;BME280;46521;50.160;20.802;2023-02-01T03:30:27;99031.03;;;1.09;83.73
59315;BME280;46521;50.160;20.802;2023-02-01T03:40:35;99018.30;;;0.95;83.99
59315;BME280;46521;50.160;20.802;2023-02-01T03:50:42;99027.53;;;0.87;83.73
59315;BME280;46521;50.160;20.802;2023-02-01T04:00:57;99046.59;;;0.77;83.47
59315;BME280;46521;50.160;20.802;2023-02-01T04:10:59;99036.66;;;0.70;83.64
59315;BME280;46521;50.160;20.802;2023-02-01T04:21:01;99041.77;;;0.61;83.40
59315;BME280;46521;50.160;20.802;2023-02-01T04:31:03;99047.80;;;0.50;83.28
59315;BME280;46521;50.160;20.802;2023-02-01T04:41:05;99064.73;;;0.44;83.28
59315;BME280;46521;50.160;20.802;2023-02-01T04:51:06;99062.36;;;0.41;83.66
59315;BME280;46521;50.160;20.802;2023-02-01T05:01:08;99078.78;;;0.53;84.12
59315;BME280;46521;50.160;20.802;2023-02-01T05:11:09;99084.38;;;0.60;84.08
59315;BME280;46521;50.160;20.802;2023-02-01T05:21:31;99089.45;;;0.61;84.22
59315;BME280;46521;50.160;20.802;2023-02-01T05:31:33;99087.90;;;0.70;84.25
59315;BME280;46521;50.160;20.802;2023-02-01T05:41:34;99090.96;;;0.75;84.18
59315;BME280;46521;50.160;20.802;2023-02-01T05:51:36;99099.27;;;0.80;83.90
59315;BME280;46521;50.160;20.802;2023-02-01T06:01:37;99102.69;;;0.81;83.88
59315;BME280;46521;50.160;20.802;2023-02-01T06:11:39;99093.94;;;0.82;83.66
59315;BME280;46521;50.160;20.802;2023-02-01T06:21:42;99090.51;;;0.59;84.05
59315;BME280;46521;50.160;20.802;2023-02-01T06:31:44;99095.22;;;0.42;84.15
59315;BME280;46521;50.160;20.802;2023-02-01T06:41:49;99103.75;;;0.33;84.03
59315;BME280;46521;50.160;20.802;2023-02-01T06:51:50;99121.46;;;0.39;84.40
59315;BME280;46521;50.160;20.802;2023-02-01T07:01:52;99104.22;;;0.49;84.20
59315;BME280;46521;50.160;20.802;2023-02-01T07:11:53;99105.89;;;0.62;84.48
59315;BME280;46521;50.160;20.802;2023-02-01T07:21:55;99113.45;;;0.76;84.36
59315;BME280;46521;50.160;20.802;2023-02-01T07:31:57;99104.47;;;0.80;84.21
59315;BME280;46521;50.160;20.802;2023-02-01T07:41:59;99096.17;;;0.98;84.22
59315;BME280;46521;50.160;20.802;2023-02-01T07:52:00;99083.58;;;1.14;84.10
59315;BME280;46521;50.160;20.802;2023-02-01T08:02:02;99078.69;;;1.32;84.09
59315;BME280;46521;50.160;20.802;2023-02-01T08:12:03;99066.79;;;1.51;83.79
59315;BME280;46521;50.160;20.802;2023-02-01T08:22:05;99061.77;;;1.59;83.14
59315;BME280;46521;50.160;20.802;2023-02-01T08:32:08;99067.87;;;1.69;82.91
59315;BME280;46521;50.160;20.802;2023-02-01T08:42:09;99070.23;;;1.72;82.90
59315;BME280;46521;50.160;20.802;2023-02-01T08:52:30;99067.24;;;1.77;82.21
59315;BME280;46521;50.160;20.802;2023-02-01T09:02:31;99072.68;;;1.85;81.78
59315;BME280;46521;50.160;20.802;2023-02-01T09:12:33;99071.70;;;1.86;81.69
59315;BME280;46521;50.160;20.802;2023-02-01T09:22:35;99060.69;;;2.04;81.60
59315;BME280;46521;50.160;20.802;2023-02-01T09:32:37;99059.88;;;2.24;81.25
59315;BME280;46521;50.160;20.802;2023-02-01T09:53:06;99038.19;;;2.64;80.42
59315;BME280;46521;50.160;20.802;2023-02-01T10:03:12;99040.34;;;2.90;79.70
59315;BME280;46521;50.160;20.802;2023-02-01T10:33:48;99010.63;;;2.91;79.50
59315;BME280;46521;50.160;20.802;2023-02-01T10:43:54;98999.50;;;2.89;78.99
59315;BME280;46521;50.160;20.802;2023-02-01T10:54:03;98998.55;;;2.90;79.40
59315;BME280;46521;50.160;20.802;2023-02-01T11:04:11;98977.94;;;3.06;79.16
59315;BME280;46521;50.160;20.802;2023-02-01T11:24:24;98970.53;;;3.21;78.76
59315;BME280;46521;50.160;20.802;2023-02-01T11:34:40;98967.20;;;3.19;78.64
59315;BME280;46521;50.160;20.802;2023-02-01T11:44:45;98965.84;;;3.25;78.58
59315;BME280;46521;50.160;20.802;2023-02-01T12:46:26;98912.90;;;3.23;78.60
59315;BME280;46521;50.160;20.802;2023-02-01T13:06:52;98915.23;;;3.26;78.45
59315;BME280;46521;50.160;20.802;2023-02-01T13:17:10;98920.86;;;3.12;78.31
59315;BME280;46521;50.160;20.802;2023-02-01T13:27:15;98920.33;;;2.98;78.93
59315;BME280;46521;50.160;20.802;2023-02-01T13:47:38;98906.86;;;2.93;79.04
59315;BME280;46521;50.160;20.802;2023-02-01T13:57:42;98911.11;;;2.94;79.45
59315;BME280;46521;50.160;20.802;2023-02-01T14:08:24;98903.67;;;2.99;79.72
59315;BME280;46521;50.160;20.802;2023-02-01T14:29:00;98901.91;;;2.90;79.05
59315;BME280;46521;50.160;20.802;2023-02-01T14:39:04;98888.83;;;2.80;78.92
59315;BME280;46521;50.160;20.802;2023-02-01T14:49:06;98878.11;;;2.74;79.07
59315;BME280;46521;50.160;20.802;2023-02-01T14:59:13;98866.86;;;2.63;79.00
59315;BME280;46521;50.160;20.802;2023-02-01T15:09:33;98864.92;;;2.56;78.84
59315;BME280;46521;50.160;20.802;2023-02-01T15:19:36;98864.35;;;2.52;79.07
59315;BME280;46521;50.160;20.802;2023-02-01T15:29:37;98875.06;;;2.49;79.04
59315;BME280;46521;50.160;20.802;2023-02-01T15:50:15;98881.33;;;2.17;79.94
59315;BME280;46521;50.160;20.802;2023-02-01T16:10:27;98878.30;;;2.12;80.44
59315;BME280;46521;50.160;20.802;2023-02-01T16:20:29;98892.14;;;2.03;80.87
59315;BME280;46521;50.160;20.802;2023-02-01T16:30:31;98904.56;;;1.89;81.52
59315;BME280;46521;50.160;20.802;2023-02-01T16:40:33;98907.27;;;1.78;81.82
59315;BME280;46521;50.160;20.802;2023-02-01T16:50:34;98902.31;;;1.75;82.15
59315;BME280;46521;50.160;20.802;2023-02-01T17:00:36;98914.66;;;1.73;81.96
59315;BME280;46521;50.160;20.802;2023-02-01T17:10:38;98939.88;;;1.72;81.72
59315;BME280;46521;50.160;20.802;2023-02-01T17:20:41;98948.80;;;1.70;82.14
59315;BME280;46521;50.160;20.802;2023-02-01T17:30:42;98946.70;;;1.64;81.90
59315;BME280;46521;50.160;20.802;2023-02-01T17:40:44;98963.36;;;1.51;81.55
59315;BME280;46521;50.160;20.802;2023-02-01T17:50:47;98962.45;;;1.41;81.88
59315;BME280;46521;50.160;20.802;2023-02-01T18:00:52;98967.67;;;1.41;81.82
59315;BME280;46521;50.160;20.802;2023-02-01T18:10:56;98972.63;;;1.44;81.92
59315;BME280;46521;50.160;20.802;2023-02-01T18:21:01;98973.34;;;1.46;82.17
59315;BME280;46521;50.160;20.802;2023-02-01T18:31:04;98966.59;;;1.43;82.52
59315;BME280;46521;50.160;20.802;2023-02-01T18:41:10;98977.02;;;1.43;82.37
59315;BME280;46521;50.160;20.802;2023-02-01T18:51:18;98964.94;;;1.42;82.39
59315;BME280;46521;50.160;20.802;2023-02-01T19:01:20;98951.66;;;1.24;82.00
59315;BME280;46521;50.160;20.802;2023-02-01T19:11:22;98947.14;;;1.26;82.70
59315;BME280;46521;50.160;20.802;2023-02-01T19:21:24;98936.22;;;1.33;82.41
59315;BME280;46521;50.160;20.802;2023-02-01T19:31:25;98932.86;;;1.42;82.58
59315;BME280;46521;50.160;20.802;2023-02-01T19:41:27;98935.89;;;1.47;82.95
59315;BME280;46521;50.160;20.802;2023-02-01T19:51:29;98937.69;;;1.47;82.92
59315;BME280;46521;50.160;20.802;2023-02-01T20:01:31;98941.23;;;1.46;82.84
59315;BME280;46521;50.160;20.802;2023-02-01T20:11:33;98919.70;;;1.43;82.95
59315;BME280;46521;50.160;20.802;2023-02-01T20:21:39;98916.97;;;1.45;82.78
59315;BME280;46521;50.160;20.802;2023-02-01T20:31:43;98890.66;;;1.48;82.96
59315;BME280;46521;50.160;20.802;2023-02-01T20:41:45;98883.52;;;1.50;82.64
59315;BME280;46521;50.160;20.802;2023-02-01T20:51:47;98883.91;;;1.46;82.62
59315;BME280;46521;50.160;20.802;2023-02-01T21:01:48;98871.85;;;1.44;82.77
59315;BME280;46521;50.160;20.802;2023-02-01T21:11:53;98861.05;;;1.49;82.48
59315;BME280;46521;50.160;20.802;2023-02-01T21:21:54;98865.28;;;1.50;82.28
59315;BME280;46521;50.160;20.802;2023-02-01T21:31:56;98861.98;;;1.48;82.59
59315;BME280;46521;50.160;20.802;2023-02-01T21:41:58;98861.56;;;1.43;82.29
59315;BME280;46521;50.160;20.802;2023-02-01T21:52:16;98836.58;;;1.40;82.43
59315;BME280;46521;50.160;20.802;2023-02-01T22:02:18;98822.28;;;1.35;82.32
59315;BME280;46521;50.160;20.802;2023-02-01T22:12:19;98825.01;;;1.33;82.77
59315;BME280;46521;50.160;20.802;2023-02-01T22:22:22;98817.36;;;1.32;82.53
59315;BME280;46521;50.160;20.802;2023-02-01T22:32:23;98793.62;;;1.35;82.69
59315;BME280;46521;50.160;20.802;2023-02-01T22:42:25;98809.97;;;1.37;82.43
59315;BME280;46521;50.160;20.802;2023-02-01T22:52:27;98797.63;;;1.39;82.68
59315;BME280;46521;50.160;20.802;2023-02-01T23:02:28;98789.94;;;1.37;83.16
59315;BME280;46521;50.160;20.802;2023-02-01T23:12:30;98765.25;;;1.32;83.35
59315;BME280;46521;50.160;20.802;2023-02-01T23:22:32;98754.83;;;1.32;83.53
59315;BME280;46521;50.160;20.802;2023-02-01T23:32:34;98748.22;;;1.28;83.40
59315;BME280;46521;50.160;20.802;2023-02-01T23:42:36;98746.56;;;1.26;83.38
